Terminal Aerodrome Forecast
Issued by NWS Albany, NY

Home | Current Version | Previous Version | Text Only | Print | Product List | Glossary On
Versions: 1 2 3 4 5 6 7 8 9 10 11 12 13 14 15 16 17
000
FTUS41 KALY 021721
TAFPOU
TAF
KPOU 021721Z 0218/0318 24007KT P6SM SCT070
     FM022300 VRB03KT P6SM SKC
     FM030900 00000KT 4SM BR SCT250
     FM031200 20005KT P6SM SCT050 SCT250=

USA.gov is the U.S. government's official web portal to all federal, state and local government web resources and services.